createdAt,value
2023-03-05T00:00:55.096Z,28.30
2023-03-05T00:03:22.533Z,27.60
2023-03-05T00:05:49.809Z,30.42
2023-03-05T00:08:17.034Z,30.80
2023-03-05T00:10:44.250Z,29.88
2023-03-05T00:13:11.473Z,30.42
2023-03-05T00:15:42.262Z,36.38
2023-03-05T00:18:09.517Z,31.15
2023-03-05T00:20:36.774Z,31.10
2023-03-05T00:23:04.187Z,33.60
2023-03-05T00:25:31.502Z,31.60
2023-03-05T00:27:58.733Z,34.85
2023-03-05T00:30:25.980Z,33.38
2023-03-05T00:32:53.273Z,37.17
2023-03-05T00:35:20.616Z,39.20
2023-03-05T00:37:48.987Z,34.85
2023-03-05T00:40:16.609Z,42.50
2023-03-05T00:42:43.873Z,32.42
2023-03-05T00:45:11.587Z,35.10
2023-03-05T00:47:38.841Z,36.58
2023-03-05T00:50:06.836Z,36.40
2023-03-05T00:52:34.074Z,33.15
2023-03-05T00:55:01.335Z,33.05
2023-03-05T00:57:28.588Z,32.50
2023-03-05T00:59:55.809Z,32.03
2023-03-05T01:02:23.066Z,36.22
2023-03-05T01:04:51.213Z,36.42
2023-03-05T01:07:18.727Z,36.60
2023-03-05T01:09:46.004Z,33.63
2023-03-05T01:12:13.272Z,38.20
2023-03-05T01:14:40.523Z,36.95
2023-03-05T01:17:08.133Z,37.05
2023-03-05T01:19:35.450Z,33.20
2023-03-05T01:22:03.179Z,35.60
2023-03-05T01:24:31.461Z,35.72
2023-03-05T01:26:58.916Z,37.25
2023-03-05T01:29:26.528Z,36.38
2023-03-05T01:31:53.881Z,38.58
2023-03-05T01:34:21.446Z,39.67
2023-03-05T01:36:50.581Z,37.60
2023-03-05T01:39:17.899Z,36.00
2023-03-05T01:41:45.409Z,35.05
2023-03-05T01:44:31.105Z,35.90
2023-03-05T01:46:58.442Z,35.40
2023-03-05T01:49:27.821Z,38.10
2023-03-05T01:52:07.363Z,40.60
2023-03-05T01:54:39.359Z,40.42
2023-03-05T01:57:09.602Z,40.05
2023-03-05T01:59:38.039Z,38.97
2023-03-05T02:02:06.094Z,35.28
2023-03-05T02:04:41.656Z,37.30
2023-03-05T02:07:08.971Z,44.08
2023-03-05T02:09:40.856Z,41.00
2023-03-05T02:12:08.878Z,42.33
2023-03-05T02:14:37.414Z,39.42
2023-03-05T02:17:05.371Z,43.17
2023-03-05T02:19:47.292Z,38.33
2023-03-05T02:22:15.841Z,37.47
2023-03-05T02:24:43.162Z,41.17
2023-03-05T02:27:10.568Z,38.95
2023-03-05T02:29:37.985Z,38.20
2023-03-05T02:32:05.407Z,37.42
2023-03-05T02:34:32.739Z,35.90
2023-03-05T02:37:02.610Z,38.37
2023-03-05T02:39:31.617Z,37.17
2023-03-05T02:41:58.917Z,36.47
2023-03-05T02:44:27.182Z,39.92
2023-03-05T02:46:54.533Z,35.70
2023-03-05T02:49:21.849Z,37.37
2023-03-05T02:51:49.154Z,46.08
2023-03-05T02:54:17.925Z,47.10
2023-03-05T02:56:45.280Z,39.97
2023-03-05T02:59:12.644Z,36.35
2023-03-05T03:01:40.336Z,35.80
2023-03-05T03:04:07.856Z,39.90
2023-03-05T03:06:35.153Z,36.45
2023-03-05T03:09:02.417Z,39.08
2023-03-05T03:11:29.672Z,35.10
2023-03-05T03:13:56.921Z,39.77
2023-03-05T03:16:24.212Z,37.42
2023-03-05T03:18:51.576Z,38.78
2023-03-05T03:21:20.314Z,38.30
2023-03-05T03:23:47.622Z,35.63
2023-03-05T03:26:14.910Z,38.57
2023-03-05T03:28:42.168Z,36.53
2023-03-05T03:31:09.501Z,35.55
2023-03-05T03:33:36.858Z,40.63
2023-03-05T03:36:04.902Z,38.78
2023-03-05T03:38:33.444Z,40.13
2023-03-05T03:41:00.744Z,36.42
2023-03-05T03:43:27.999Z,35.65
2023-03-05T03:45:55.317Z,42.75
2023-03-05T03:48:25.568Z,38.25
2023-03-05T03:50:52.862Z,37.80
2023-03-05T03:53:20.168Z,37.42
2023-03-05T03:55:47.493Z,34.30
2023-03-05T03:58:14.808Z,35.65
2023-03-05T04:00:42.182Z,36.78
2023-03-05T04:03:09.427Z,33.33
2023-03-05T04:05:36.683Z,34.88
2023-03-05T04:08:04.218Z,36.45
2023-03-05T04:10:31.440Z,33.47
2023-03-05T04:12:58.731Z,32.83
2023-03-05T04:15:26.166Z,32.47
2023-03-05T04:17:53.474Z,33.50
2023-03-05T04:20:20.920Z,32.65
2023-03-05T04:22:48.322Z,36.10
2023-03-05T04:25:15.628Z,31.90
2023-03-05T04:27:42.871Z,33.80
2023-03-05T04:30:11.973Z,32.08
2023-03-05T04:32:39.296Z,33.08
2023-03-05T04:35:06.874Z,29.38
2023-03-05T04:37:34.156Z,33.72
2023-03-05T04:40:01.439Z,38.57
2023-03-05T04:42:28.793Z,37.22
2023-03-05T04:44:56.070Z,36.15
2023-03-05T04:47:23.434Z,36.75
2023-03-05T04:49:50.814Z,38.53
2023-03-05T04:52:18.122Z,37.00
2023-03-05T04:54:45.574Z,32.42
2023-03-05T04:57:12.859Z,33.90
2023-03-05T04:59:40.148Z,29.00
2023-03-05T05:02:07.476Z,31.40
2023-03-05T05:04:36.125Z,31.77
2023-03-05T05:07:03.655Z,29.92
2023-03-05T05:09:31.053Z,31.13
2023-03-05T05:11:58.331Z,29.83
2023-03-05T05:14:25.613Z,31.60
2023-03-05T05:16:52.898Z,28.90
2023-03-05T05:19:20.175Z,30.60
2023-03-05T05:21:47.517Z,31.50
2023-03-05T05:24:14.785Z,30.58
2023-03-05T05:26:42.041Z,32.97
2023-03-05T05:29:09.300Z,25.63
2023-03-05T05:31:36.859Z,31.13
2023-03-05T05:34:04.134Z,36.90
2023-03-05T05:36:31.436Z,32.33
2023-03-05T05:38:58.749Z,33.47
2023-03-05T05:41:26.020Z,40.30
2023-03-05T05:43:53.310Z,35.15
2023-03-05T05:46:20.928Z,36.38
2023-03-05T05:48:48.390Z,35.97
2023-03-05T05:51:18.041Z,35.22
2023-03-05T05:53:45.734Z,35.07
2023-03-05T05:56:13.400Z,33.28
2023-03-05T05:58:41.128Z,33.13
2023-03-05T06:01:15.322Z,34.05
2023-03-05T06:03:42.681Z,34.22
2023-03-05T06:06:11.619Z,30.87
2023-03-05T06:08:39.045Z,36.33
2023-03-05T06:11:06.689Z,31.35
2023-03-05T06:13:34.174Z,35.88
2023-03-05T06:16:03.060Z,38.67
2023-03-05T06:18:30.507Z,36.83
2023-03-05T06:20:58.894Z,35.50
2023-03-05T06:23:26.333Z,35.67
2023-03-05T06:25:53.780Z,40.63
2023-03-05T06:28:21.360Z,39.47
2023-03-05T06:30:48.722Z,36.83
2023-03-05T06:33:16.109Z,37.83
2023-03-05T06:35:43.367Z,35.70
2023-03-05T06:38:10.618Z,37.83
2023-03-05T06:40:39.329Z,41.17
2023-03-05T06:43:06.746Z,41.57
2023-03-05T06:45:34.149Z,40.97
2023-03-05T06:48:01.809Z,40.17
2023-03-05T06:50:29.133Z,39.38
2023-03-05T06:52:56.473Z,38.78
2023-03-05T06:55:23.785Z,43.20
2023-03-05T06:57:51.075Z,43.00
2023-03-05T07:00:18.567Z,42.53
2023-03-05T07:02:45.832Z,41.17
2023-03-05T07:05:13.240Z,42.42
2023-03-05T07:07:40.512Z,37.93
2023-03-05T07:10:08.720Z,45.75
2023-03-05T07:12:36.019Z,47.13
2023-03-05T07:15:03.534Z,49.67
2023-03-05T07:17:30.786Z,46.20
2023-03-05T07:19:58.036Z,49.47
2023-03-05T07:22:25.333Z,42.65
2023-03-05T07:24:52.674Z,44.03
2023-03-05T07:27:20.033Z,49.50
2023-03-05T07:29:47.276Z,48.75
2023-03-05T07:32:14.594Z,44.63
2023-03-05T07:34:42.880Z,48.05
2023-03-05T07:37:10.122Z,49.10
2023-03-05T07:39:37.388Z,51.78
2023-03-05T07:42:04.708Z,48.33
2023-03-05T07:44:48.806Z,48.67
2023-03-05T07:47:16.140Z,52.13
2023-03-05T07:49:43.466Z,65.22
2023-03-05T07:52:10.755Z,56.67
2023-03-05T07:54:40.874Z,64.95
2023-03-05T07:57:08.723Z,58.33
2023-03-05T07:59:36.081Z,60.33
2023-03-05T08:02:03.385Z,46.40
2023-03-05T08:04:31.981Z,42.50
2023-03-05T08:06:59.887Z,48.83
2023-03-05T08:09:28.093Z,50.53
2023-03-05T08:11:55.425Z,46.53
2023-03-05T08:14:22.789Z,48.63
2023-03-05T08:16:53.438Z,46.85
2023-03-05T08:19:21.333Z,46.25
2023-03-05T08:21:48.719Z,40.90
2023-03-05T08:24:16.093Z,40.97
2023-03-05T08:26:43.633Z,32.05
2023-03-05T08:29:11.240Z,40.85
2023-03-05T08:31:38.816Z,24.63
2023-03-05T08:34:06.204Z,17.52
2023-03-05T08:36:33.502Z,17.58
2023-03-05T08:39:00.975Z,16.58
2023-03-05T08:41:28.385Z,14.85
2023-03-05T08:43:55.721Z,17.45
2023-03-05T08:46:23.051Z,17.48
2023-03-05T08:48:50.407Z,16.00
2023-03-05T08:51:19.564Z,15.07
2023-03-05T08:53:47.200Z,15.85
2023-03-05T08:56:14.805Z,17.75
2023-03-05T08:58:42.850Z,17.67
2023-03-05T09:01:10.232Z,19.40
2023-03-05T09:03:37.981Z,17.63
2023-03-05T09:06:07.044Z,15.82
2023-03-05T09:08:34.768Z,17.13
2023-03-05T09:11:06.173Z,16.08
2023-03-05T09:13:33.641Z,16.52
2023-03-05T09:16:05.647Z,14.55
2023-03-05T09:18:33.216Z,14.43
2023-03-05T09:21:04.616Z,15.98
2023-03-05T09:23:31.954Z,14.82
2023-03-05T09:25:59.206Z,14.05
2023-03-05T09:28:26.522Z,22.13
2023-03-05T09:30:53.885Z,14.57
2023-03-05T09:33:21.151Z,13.05
2023-03-05T09:35:48.884Z,14.32
2023-03-05T09:38:16.212Z,14.77
2023-03-05T09:40:55.940Z,15.60
2023-03-05T09:43:30.987Z,17.15
2023-03-05T09:46:13.421Z,15.32
2023-03-05T09:48:44.515Z,15.57
2023-03-05T09:51:14.267Z,15.02
2023-03-05T09:53:46.280Z,14.80
2023-03-05T09:56:23.246Z,14.77
2023-03-05T09:58:56.237Z,16.30
2023-03-05T10:01:29.264Z,16.00
2023-03-05T10:04:16.643Z,15.77
2023-03-05T10:06:57.560Z,13.60
2023-03-05T10:09:50.090Z,13.50
2023-03-05T10:12:35.543Z,14.88
2023-03-05T10:15:03.280Z,15.45
2023-03-05T10:18:08.271Z,15.85
2023-03-05T10:20:46.698Z,18.10
2023-03-05T10:23:26.003Z,15.60
2023-03-05T10:26:17.467Z,14.50
2023-03-05T10:28:48.971Z,15.50
2023-03-05T10:31:31.670Z,14.60
2023-03-05T10:34:14.442Z,16.08
2023-03-05T10:37:04.373Z,16.75
2023-03-05T10:39:46.983Z,16.60
2023-03-05T10:42:39.027Z,17.33
2023-03-05T10:45:17.140Z,17.42
2023-03-05T10:47:46.026Z,15.23
2023-03-05T10:50:27.549Z,15.98
2023-03-05T10:53:27.131Z,15.75
2023-03-05T10:55:56.590Z,15.18
2023-03-05T10:58:24.868Z,16.13
2023-03-05T11:01:28.999Z,15.43
2023-03-05T11:04:06.461Z,16.95
2023-03-05T11:06:41.484Z,15.50
2023-03-05T11:09:21.907Z,17.17
2023-03-05T11:12:08.534Z,16.90
2023-03-05T11:14:38.681Z,18.15
2023-03-05T11:17:39.012Z,16.75
2023-03-05T11:20:27.922Z,17.65
2023-03-05T11:23:10.874Z,17.85
2023-03-05T11:25:56.421Z,20.45
2023-03-05T11:28:32.922Z,17.83
2023-03-05T11:31:07.709Z,18.38
2023-03-05T11:33:36.247Z,17.83
2023-03-05T11:36:13.087Z,18.20
2023-03-05T11:38:51.367Z,16.35
2023-03-05T11:41:21.216Z,19.63
2023-03-05T11:43:48.458Z,18.85
2023-03-05T11:46:16.618Z,19.95
2023-03-05T11:48:43.995Z,18.92
2023-03-05T11:51:26.988Z,18.88
2023-03-05T11:53:56.900Z,19.30
2023-03-05T11:56:28.049Z,20.02
2023-03-05T11:59:32.136Z,18.85
2023-03-05T12:01:59.533Z,19.40
2023-03-05T12:04:27.038Z,18.38
2023-03-05T12:07:03.526Z,19.20
2023-03-05T12:09:56.204Z,20.98
2023-03-05T12:12:47.586Z,19.63
2023-03-05T12:15:17.560Z,17.92
2023-03-05T12:18:03.340Z,19.38
2023-03-05T12:20:48.007Z,19.48
2023-03-05T12:23:20.321Z,20.35
2023-03-05T12:25:52.390Z,21.83
2023-03-05T12:28:35.913Z,21.60
2023-03-05T12:31:04.035Z,23.27
2023-03-05T12:33:34.172Z,21.98
2023-03-05T12:36:19.626Z,19.38
2023-03-05T12:38:54.148Z,21.45
2023-03-05T12:41:25.902Z,22.17
2023-03-05T12:44:06.790Z,21.27
2023-03-05T12:46:40.720Z,24.25
2023-03-05T12:49:20.310Z,25.40
2023-03-05T12:51:48.210Z,22.95
2023-03-05T12:54:29.469Z,23.70
2023-03-05T12:56:58.694Z,25.45
2023-03-05T12:59:49.088Z,26.00
2023-03-05T13:02:21.364Z,25.80
2023-03-05T13:04:48.704Z,21.85
2023-03-05T13:07:16.961Z,24.77
2023-03-05T13:09:57.887Z,22.08
2023-03-05T13:12:26.701Z,24.17
2023-03-05T13:15:07.839Z,25.30
2023-03-05T13:17:41.124Z,22.35
2023-03-05T13:20:27.010Z,27.63
2023-03-05T13:23:14.029Z,34.90
2023-03-05T13:25:41.376Z,32.25
2023-03-05T13:28:15.772Z,27.95
2023-03-05T13:30:45.578Z,25.33
2023-03-05T13:33:18.069Z,23.75
2023-03-05T13:35:46.290Z,23.60
2023-03-05T13:38:24.327Z,24.98
2023-03-05T13:41:05.454Z,23.05
2023-03-05T13:43:32.810Z,23.23
2023-03-05T13:46:00.256Z,22.60
2023-03-05T13:48:28.240Z,21.98
2023-03-05T13:50:56.929Z,21.40
2023-03-05T13:53:24.153Z,19.92
2023-03-05T13:55:59.710Z,23.77
2023-03-05T13:58:50.812Z,24.90
2023-03-05T14:01:50.298Z,21.10
2023-03-05T14:04:19.882Z,22.88
2023-03-05T14:07:03.834Z,20.13
2023-03-05T14:09:41.070Z,24.48
2023-03-05T14:12:32.901Z,24.10
2023-03-05T14:15:02.334Z,20.65
2023-03-05T14:17:35.347Z,23.23
2023-03-05T14:20:23.876Z,26.40
2023-03-05T14:22:53.194Z,23.33
2023-03-05T14:25:37.670Z,18.02
2023-03-05T14:28:17.130Z,21.38
2023-03-05T14:30:48.431Z,17.05
2023-03-05T14:33:17.860Z,20.42
2023-03-05T14:35:48.620Z,15.48
2023-03-05T14:38:23.549Z,15.25
2023-03-05T14:40:51.402Z,12.32
2023-03-05T14:43:18.660Z,12.40
2023-03-05T14:45:46.722Z,12.80
2023-03-05T14:48:15.493Z,7.78
2023-03-05T14:50:52.484Z,12.75
2023-03-05T14:53:25.879Z,11.35
2023-03-05T14:55:56.733Z,9.50
2023-03-05T14:58:26.094Z,7.65
2023-03-05T15:00:53.668Z,8.60
2023-03-05T15:03:21.472Z,6.35
2023-03-05T15:05:51.087Z,5.43
2023-03-05T15:08:25.883Z,6.38
2023-03-05T15:10:53.279Z,6.88
2023-03-05T15:13:20.805Z,6.72
2023-03-05T15:15:48.674Z,6.50
2023-03-05T15:18:17.493Z,6.85
2023-03-05T15:20:44.994Z,7.30
2023-03-05T15:23:13.012Z,5.35
2023-03-05T15:25:40.632Z,5.47
2023-03-05T15:28:07.927Z,8.27
2023-03-05T15:30:40.288Z,5.22
2023-03-05T15:33:09.609Z,7.00
2023-03-05T15:35:37.047Z,6.18
2023-03-05T15:38:04.561Z,6.97
2023-03-05T15:40:31.910Z,8.27
2023-03-05T15:42:59.488Z,6.15
2023-03-05T15:45:27.423Z,5.40
2023-03-05T15:47:54.687Z,8.52
2023-03-05T15:50:21.958Z,5.28
2023-03-05T15:52:49.307Z,4.97
2023-03-05T15:55:18.307Z,6.63
2023-03-05T15:57:47.151Z,5.13
2023-03-05T16:00:15.187Z,9.82
2023-03-05T16:02:42.455Z,6.03
2023-03-05T16:05:10.191Z,6.97
2023-03-05T16:07:38.759Z,6.45
2023-03-05T16:10:06.626Z,7.80
2023-03-05T16:12:40.739Z,7.22
2023-03-05T16:15:10.083Z,7.53
2023-03-05T16:17:37.397Z,6.35
2023-03-05T16:20:05.204Z,6.80
2023-03-05T16:22:32.613Z,6.45
2023-03-05T16:25:01.324Z,9.77
2023-03-05T16:27:29.040Z,8.00
2023-03-05T16:29:56.369Z,7.57
2023-03-05T16:32:24.098Z,7.50
2023-03-05T16:34:51.405Z,6.80
2023-03-05T16:37:20.121Z,7.22
2023-03-05T16:39:47.606Z,9.95
2023-03-05T16:42:15.041Z,9.38
2023-03-05T16:44:42.444Z,10.18
2023-03-05T16:47:12.177Z,4.68
2023-03-05T16:49:39.732Z,4.35
2023-03-05T16:52:18.394Z,4.60
2023-03-05T16:54:46.292Z,4.28
2023-03-05T16:57:13.543Z,4.78
2023-03-05T16:59:41.624Z,7.22
2023-03-05T17:02:08.962Z,6.43
2023-03-05T17:04:37.063Z,9.75
2023-03-05T17:07:05.529Z,6.43
2023-03-05T17:09:32.912Z,5.47
2023-03-05T17:12:00.294Z,5.28
2023-03-05T17:14:27.688Z,8.18
2023-03-05T17:16:54.960Z,7.53
2023-03-05T17:19:22.265Z,6.22
2023-03-05T17:21:51.199Z,5.10
2023-03-05T17:24:20.826Z,6.38
2023-03-05T17:26:50.164Z,6.55
2023-03-05T17:29:19.042Z,7.45
2023-03-05T17:31:46.994Z,6.45
2023-03-05T17:34:14.722Z,6.20
2023-03-05T17:36:45.575Z,9.30
2023-03-05T17:39:13.905Z,4.75
2023-03-05T17:41:43.332Z,7.80
2023-03-05T17:44:10.571Z,4.63
2023-03-05T17:46:37.795Z,6.05
2023-03-05T17:49:05.087Z,5.95
2023-03-05T17:51:32.332Z,4.35
2023-03-05T17:53:59.622Z,3.65
2023-03-05T17:56:26.990Z,6.18
2023-03-05T17:58:54.596Z,3.85
2023-03-05T18:01:29.429Z,4.53
2023-03-05T18:03:57.015Z,4.47
2023-03-05T18:06:24.521Z,4.22
2023-03-05T18:08:51.918Z,4.75
2023-03-05T18:11:19.219Z,7.93
2023-03-05T18:13:46.486Z,4.47
2023-03-05T18:16:16.907Z,3.70
2023-03-05T18:18:44.655Z,4.70
2023-03-05T18:21:11.911Z,4.78
2023-03-05T18:23:39.191Z,4.85
2023-03-05T18:26:06.478Z,5.03
2023-03-05T18:28:33.778Z,4.80
2023-03-05T18:31:01.276Z,5.32
2023-03-05T18:33:28.633Z,4.57
2023-03-05T18:35:56.463Z,5.80
2023-03-05T18:38:25.381Z,6.15
2023-03-05T18:40:53.370Z,4.95
2023-03-05T18:43:21.249Z,4.60
2023-03-05T18:45:49.593Z,4.75
2023-03-05T18:48:16.837Z,4.95
2023-03-05T18:50:44.070Z,5.55
2023-03-05T18:53:14.551Z,5.05
2023-03-05T18:55:42.858Z,5.22
2023-03-05T18:58:10.300Z,7.72
2023-03-05T19:00:37.569Z,6.47
2023-03-05T19:03:05.893Z,8.05
2023-03-05T19:05:33.349Z,6.07
2023-03-05T19:08:01.240Z,6.78
2023-03-05T19:10:28.551Z,5.68
2023-03-05T19:13:43.794Z,6.13
2023-03-05T19:16:13.557Z,5.95
2023-03-05T19:19:16.603Z,4.55
2023-03-05T19:21:48.205Z,4.80
2023-03-05T19:24:15.659Z,4.97
2023-03-05T19:26:43.401Z,5.88
2023-03-05T19:29:10.684Z,4.93
2023-03-05T19:31:38.096Z,6.47
2023-03-05T19:34:05.921Z,6.68
2023-03-05T19:36:34.429Z,4.65
2023-03-05T19:39:04.253Z,5.07
2023-03-05T19:41:31.619Z,4.88
2023-03-05T19:43:58.991Z,6.57
2023-03-05T19:46:26.317Z,6.10
2023-03-05T19:48:53.687Z,4.05
2023-03-05T19:51:22.110Z,5.90
2023-03-05T19:53:49.437Z,5.70
2023-03-05T19:56:16.836Z,6.30
2023-03-05T19:58:45.611Z,4.82
2023-03-05T20:01:18.021Z,4.60
2023-03-05T20:03:49.384Z,6.30
2023-03-05T20:06:16.890Z,6.97
2023-03-05T20:08:44.638Z,6.70
2023-03-05T20:11:13.098Z,4.57
2023-03-05T20:13:40.457Z,5.03
2023-03-05T20:16:21.812Z,6.00
2023-03-05T20:18:52.870Z,5.78
2023-03-05T20:21:23.220Z,4.57
2023-03-05T20:23:54.564Z,6.72
2023-03-05T20:26:22.281Z,5.50
2023-03-05T20:28:49.912Z,5.70
2023-03-05T20:31:20.762Z,6.88
2023-03-05T20:33:48.171Z,6.68
2023-03-05T20:36:15.533Z,7.47
2023-03-05T20:38:42.841Z,5.40
2023-03-05T20:41:11.758Z,6.43
2023-03-05T20:43:44.744Z,4.55
2023-03-05T20:46:17.394Z,5.53
2023-03-05T20:48:44.971Z,8.38
2023-03-05T20:51:18.648Z,8.18
2023-03-05T20:53:45.936Z,6.95
2023-03-05T20:56:13.290Z,4.78
2023-03-05T20:58:40.563Z,5.03
2023-03-05T21:01:07.994Z,4.03
2023-03-05T21:03:37.212Z,6.05
2023-03-05T21:06:04.820Z,4.70
2023-03-05T21:08:32.105Z,3.92
2023-03-05T21:10:59.545Z,5.03
2023-03-05T21:13:26.946Z,4.38
2023-03-05T21:15:54.198Z,4.00
2023-03-05T21:18:21.525Z,4.05
2023-03-05T21:20:48.867Z,4.22
2023-03-05T21:23:16.668Z,3.17
2023-03-05T21:25:43.996Z,4.63
2023-03-05T21:28:12.931Z,4.55
2023-03-05T21:30:43.558Z,4.38
2023-03-05T21:33:12.621Z,4.50
2023-03-05T21:35:40.018Z,2.72
2023-03-05T21:38:07.692Z,4.80
2023-03-05T21:40:35.900Z,5.50
2023-03-05T21:43:03.782Z,3.83
2023-03-05T21:45:31.283Z,4.68
2023-03-05T21:48:01.205Z,4.35
2023-03-05T21:50:28.525Z,4.70
2023-03-05T21:52:56.108Z,2.80
2023-03-05T21:56:22.081Z,3.88
2023-03-05T21:58:49.524Z,6.05
2023-03-05T22:01:18.463Z,3.85
2023-03-05T22:03:46.012Z,5.38
2023-03-05T22:06:13.863Z,4.13
2023-03-05T22:08:41.259Z,3.63
2023-03-05T22:11:11.325Z,4.25
2023-03-05T22:13:38.697Z,4.45
2023-03-05T22:16:06.269Z,2.58
2023-03-05T22:18:33.624Z,5.18
2023-03-05T22:21:01.002Z,3.67
2023-03-05T22:23:29.948Z,4.75
2023-03-05T22:26:01.275Z,4.22
2023-03-05T22:28:28.608Z,6.35
2023-03-05T22:30:56.020Z,3.72
2023-03-05T22:33:23.463Z,5.43
2023-03-05T22:35:50.950Z,4.40
2023-03-05T22:38:18.266Z,3.60
2023-03-05T22:40:47.108Z,6.32
2023-03-05T22:43:14.503Z,3.35
2023-03-05T22:45:41.799Z,3.45
2023-03-05T22:48:12.197Z,4.03
2023-03-05T22:50:39.948Z,5.25
2023-03-05T22:53:07.368Z,3.38
2023-03-05T22:55:34.606Z,5.22
2023-03-05T22:58:01.867Z,4.10
2023-03-05T23:00:29.113Z,4.85
2023-03-05T23:02:56.550Z,4.63
2023-03-05T23:05:23.926Z,6.40
2023-03-05T23:07:51.161Z,5.13
2023-03-05T23:10:20.255Z,4.72
2023-03-05T23:12:50.073Z,4.45
2023-03-05T23:15:31.514Z,6.22
2023-03-05T23:17:58.909Z,4.63
2023-03-05T23:20:31.133Z,3.60
2023-03-05T23:22:58.416Z,3.78
2023-03-05T23:25:27.809Z,4.30
2023-03-05T23:27:55.098Z,3.55
2023-03-05T23:30:23.155Z,4.82
2023-03-05T23:33:00.202Z,3.87
2023-03-05T23:35:28.498Z,3.92
2023-03-05T23:37:56.545Z,3.28
2023-03-05T23:40:25.768Z,4.97
2023-03-05T23:42:53.209Z,4.70
2023-03-05T23:45:21.044Z,4.43
2023-03-05T23:47:48.695Z,4.90
2023-03-05T23:50:18.028Z,5.60
2023-03-05T23:52:45.376Z,4.95
2023-03-05T23:55:23.387Z,8.02
2023-03-05T23:57:50.658Z,5.50
